createdAt,value
2019-02-15T00:00:09.100Z,8.05
2019-02-15T00:02:43.543Z,8.25
2019-02-15T00:05:17.205Z,8.20
2019-02-15T00:07:51.076Z,8.55
2019-02-15T00:10:24.592Z,9.82
2019-02-15T00:12:58.230Z,8.60
2019-02-15T00:15:32.523Z,8.45
2019-02-15T00:18:16.124Z,8.27
2019-02-15T00:20:52.188Z,8.30
2019-02-15T00:23:26.021Z,8.43
2019-02-15T00:25:59.807Z,8.77
2019-02-15T00:28:33.351Z,8.05
2019-02-15T00:31:06.990Z,8.68
2019-02-15T00:33:40.826Z,9.27
2019-02-15T00:36:14.611Z,8.02
2019-02-15T00:38:48.235Z,8.45
2019-02-15T00:41:21.911Z,8.38
2019-02-15T00:43:56.436Z,10.18
2019-02-15T00:46:31.566Z,9.20
2019-02-15T00:49:06.105Z,7.95
2019-02-15T00:51:41.689Z,8.45
2019-02-15T00:54:20.878Z,8.52
2019-02-15T00:57:03.383Z,9.27
2019-02-15T00:59:37.692Z,10.73
2019-02-15T01:02:22.291Z,8.25
2019-02-15T01:04:55.854Z,10.18
2019-02-15T01:07:35.139Z,9.77
2019-02-15T01:10:24.768Z,8.13
2019-02-15T01:13:00.397Z,8.60
2019-02-15T01:15:34.735Z,8.60
2019-02-15T01:18:08.445Z,8.35
2019-02-15T01:20:42.120Z,9.15
2019-02-15T01:23:16.569Z,8.90
2019-02-15T01:25:50.898Z,8.82
2019-02-15T01:28:28.262Z,7.57
2019-02-15T01:31:20.724Z,8.55
2019-02-15T01:33:58.387Z,8.63
2019-02-15T01:49:52.628Z,12.73
2019-02-15T01:52:26.305Z,10.35
2019-02-15T01:54:59.940Z,9.30
2019-02-15T01:57:33.491Z,10.05
2019-02-15T02:00:07.189Z,10.82
2019-02-15T02:02:40.773Z,8.48
2019-02-15T02:05:14.489Z,10.65
2019-02-15T02:07:48.809Z,10.73
2019-02-15T02:10:22.702Z,8.88
2019-02-15T02:12:56.335Z,9.70
2019-02-15T02:15:29.995Z,9.68
2019-02-15T02:18:03.738Z,9.05
2019-02-15T02:20:37.924Z,11.18
2019-02-15T02:23:11.663Z,9.90
2019-02-15T02:25:45.246Z,9.80
2019-02-15T02:28:18.769Z,9.98
2019-02-15T02:30:52.654Z,10.50
2019-02-15T02:33:26.742Z,8.93
2019-02-15T02:36:00.617Z,11.68
2019-02-15T02:38:34.606Z,10.40
2019-02-15T02:41:08.268Z,9.10
2019-02-15T02:43:42.808Z,7.95
2019-02-15T02:46:17.340Z,8.80
2019-02-15T02:48:51.867Z,9.07
2019-02-15T02:51:25.699Z,9.00
2019-02-15T02:53:59.400Z,7.75
2019-02-15T02:56:33.209Z,8.45
2019-02-15T02:59:07.022Z,8.10
2019-02-15T03:01:40.742Z,8.50
2019-02-15T03:04:15.205Z,9.50
2019-02-15T03:06:48.786Z,7.45
2019-02-15T03:09:22.439Z,8.80
2019-02-15T03:11:56.383Z,9.32
2019-02-15T03:14:30.067Z,8.60
2019-02-15T03:17:03.625Z,9.48
2019-02-15T03:19:37.344Z,8.10
2019-02-15T03:22:10.951Z,8.20
2019-02-15T03:24:44.540Z,9.90
2019-02-15T03:27:18.260Z,8.90
2019-02-15T03:29:51.964Z,9.77
2019-02-15T03:32:26.410Z,7.82
2019-02-15T03:34:59.992Z,9.10
2019-02-15T03:37:33.721Z,9.68
2019-02-15T03:40:07.487Z,8.52
2019-02-15T03:42:41.043Z,8.18
2019-02-15T03:45:14.923Z,9.27
2019-02-15T03:47:48.549Z,8.77
2019-02-15T03:50:22.240Z,10.43
2019-02-15T03:52:56.068Z,8.80
2019-02-15T03:55:30.579Z,10.00
2019-02-15T03:58:04.128Z,10.45
2019-02-15T04:00:37.696Z,10.77
2019-02-15T04:03:11.801Z,9.77
2019-02-15T04:05:46.249Z,9.60
2019-02-15T04:08:19.856Z,9.45
2019-02-15T04:10:53.548Z,9.75
2019-02-15T04:13:27.163Z,8.77
2019-02-15T04:16:01.695Z,8.90
2019-02-15T04:18:36.171Z,11.20
2019-02-15T04:21:10.077Z,8.93
2019-02-15T04:23:43.707Z,9.57
2019-02-15T04:26:17.295Z,9.73
2019-02-15T04:28:51.050Z,9.82
2019-02-15T04:31:24.780Z,9.65
2019-02-15T04:33:58.524Z,9.00
2019-02-15T04:36:32.309Z,9.43
2019-02-15T04:39:06.131Z,8.55
2019-02-15T04:41:39.869Z,9.15
2019-02-15T04:44:13.455Z,10.77
2019-02-15T04:46:47.201Z,10.38
2019-02-15T04:49:20.952Z,9.85
2019-02-15T04:51:54.753Z,8.88
2019-02-15T04:54:28.488Z,10.77
2019-02-15T04:57:02.081Z,11.05
2019-02-15T04:59:36.695Z,9.52
2019-02-15T05:02:10.408Z,11.00
2019-02-15T05:04:45.688Z,12.20
2019-02-15T05:07:19.260Z,9.77
2019-02-15T05:09:52.889Z,10.88
2019-02-15T05:12:27.200Z,9.55
2019-02-15T05:15:00.785Z,8.95
2019-02-15T05:17:34.832Z,9.35
2019-02-15T05:20:08.440Z,11.40
2019-02-15T05:22:42.142Z,9.82
2019-02-15T05:25:15.885Z,10.20
2019-02-15T05:27:49.663Z,9.82
2019-02-15T05:30:23.414Z,11.18
2019-02-15T05:32:57.196Z,9.60
2019-02-15T05:35:30.892Z,10.75
2019-02-15T05:38:04.448Z,10.20
2019-02-15T05:40:38.046Z,10.18
2019-02-15T05:43:11.800Z,9.52
2019-02-15T05:45:45.531Z,9.90
2019-02-15T05:48:19.247Z,11.63
2019-02-15T05:50:52.828Z,12.25
2019-02-15T05:53:26.629Z,11.23
2019-02-15T05:56:01.106Z,8.90
2019-02-15T05:58:34.753Z,11.20
2019-02-15T06:01:08.432Z,10.57
2019-02-15T06:03:42.989Z,10.77
2019-02-15T06:06:16.786Z,10.18
2019-02-15T06:08:51.227Z,11.88
2019-02-15T06:11:24.918Z,9.90
2019-02-15T06:13:59.703Z,9.35
2019-02-15T06:16:33.983Z,10.63
2019-02-15T06:19:07.635Z,11.82
2019-02-15T06:21:41.229Z,9.95
2019-02-15T06:24:15.668Z,9.82
2019-02-15T06:26:49.217Z,10.68
2019-02-15T06:29:22.865Z,10.75
2019-02-15T06:31:56.599Z,11.25
2019-02-15T06:34:30.930Z,10.65
2019-02-15T06:37:04.672Z,9.60
2019-02-15T06:39:38.320Z,11.18
2019-02-15T06:42:12.703Z,11.18
2019-02-15T06:44:46.543Z,10.15
2019-02-15T06:47:20.353Z,9.82
2019-02-15T06:49:54.028Z,10.88
2019-02-15T06:52:27.546Z,9.52
2019-02-15T06:55:01.334Z,10.10
2019-02-15T06:57:35.013Z,11.25
2019-02-15T07:00:26.391Z,10.45
2019-02-15T07:03:01.383Z,9.30
2019-02-15T07:05:35.117Z,10.48
2019-02-15T07:08:08.828Z,11.02
2019-02-15T07:10:42.540Z,9.10
2019-02-15T07:13:16.347Z,10.50
2019-02-15T07:15:50.116Z,9.60
2019-02-15T07:18:23.965Z,9.20
2019-02-15T07:20:57.711Z,10.88
2019-02-15T07:23:31.344Z,9.20
2019-02-15T07:26:05.757Z,9.60
2019-02-15T07:28:39.589Z,10.90
2019-02-15T07:31:13.193Z,8.85
2019-02-15T07:33:47.751Z,9.55
2019-02-15T07:36:21.378Z,10.13
2019-02-15T07:38:54.929Z,11.57
2019-02-15T07:41:29.360Z,9.88
2019-02-15T07:44:03.063Z,11.57
2019-02-15T07:46:36.904Z,12.07
2019-02-15T07:49:10.588Z,12.43
2019-02-15T07:51:45.072Z,11.60
2019-02-15T07:54:18.885Z,12.25
2019-02-15T07:56:52.529Z,13.18
2019-02-15T07:59:26.059Z,13.50
2019-02-15T08:02:01.883Z,11.52
2019-02-15T08:04:33.365Z,12.43
2019-02-15T08:07:07.233Z,12.13
2019-02-15T08:09:40.896Z,11.55
2019-02-15T08:12:14.669Z,12.37
2019-02-15T08:14:48.471Z,11.50
2019-02-15T08:17:22.920Z,12.75
2019-02-15T08:19:56.730Z,12.55
2019-02-15T08:22:31.198Z,11.90
2019-02-15T08:25:05.712Z,12.90
2019-02-15T08:27:39.482Z,11.48
2019-02-15T08:30:14.506Z,12.18
2019-02-15T08:32:48.139Z,11.45
2019-02-15T08:35:22.004Z,11.60
2019-02-15T08:37:56.493Z,11.30
2019-02-15T08:40:30.131Z,11.73
2019-02-15T08:43:04.635Z,11.43
2019-02-15T08:45:38.346Z,12.60
2019-02-15T08:48:12.199Z,14.35
2019-02-15T08:50:45.783Z,12.85
2019-02-15T08:53:19.558Z,10.75
2019-02-15T08:55:53.176Z,11.32
2019-02-15T08:58:26.869Z,11.15
2019-02-15T09:01:00.572Z,11.25
2019-02-15T09:03:34.275Z,12.23
2019-02-15T09:06:07.865Z,12.55
2019-02-15T09:08:41.487Z,12.13
2019-02-15T09:11:15.055Z,13.40
2019-02-15T09:13:48.761Z,12.95
2019-02-15T09:16:23.193Z,12.52
2019-02-15T09:18:56.817Z,12.77
2019-02-15T09:21:31.286Z,12.00
2019-02-15T09:24:04.928Z,13.38
2019-02-15T09:26:39.257Z,12.40
2019-02-15T09:29:13.565Z,13.75
2019-02-15T09:31:47.323Z,12.52
2019-02-15T09:34:21.079Z,12.30
2019-02-15T09:36:54.741Z,12.95
2019-02-15T09:39:29.286Z,14.85
2019-02-15T09:42:02.997Z,14.00
2019-02-15T09:44:36.647Z,12.88
2019-02-15T09:47:10.219Z,13.27
2019-02-15T09:49:45.097Z,12.85
2019-02-15T09:52:17.741Z,13.93
2019-02-15T09:54:51.455Z,14.57
2019-02-15T09:57:25.190Z,13.50
2019-02-15T09:59:58.885Z,12.27
2019-02-15T10:02:33.484Z,12.85
2019-02-15T10:05:07.162Z,12.63
2019-02-15T10:07:41.597Z,12.00
2019-02-15T10:10:15.331Z,11.05
2019-02-15T10:12:49.092Z,12.57
2019-02-15T10:15:22.623Z,11.68
2019-02-15T10:17:56.251Z,11.02
2019-02-15T10:20:30.069Z,11.55
2019-02-15T10:23:03.815Z,12.13
2019-02-15T10:25:37.547Z,10.60
2019-02-15T10:28:12.195Z,11.10
2019-02-15T10:30:46.879Z,11.00
2019-02-15T10:33:20.572Z,11.30
2019-02-15T10:35:54.384Z,10.40
2019-02-15T10:38:28.122Z,13.25
2019-02-15T10:41:01.899Z,11.15
2019-02-15T10:43:35.635Z,10.23
2019-02-15T10:46:09.310Z,9.87
2019-02-15T10:48:43.704Z,10.83
2019-02-15T10:51:17.434Z,11.20
2019-02-15T10:53:51.190Z,10.63
2019-02-15T10:56:25.037Z,11.43
2019-02-15T10:58:59.536Z,11.07
2019-02-15T11:01:33.215Z,10.73
2019-02-15T11:04:07.668Z,10.83
2019-02-15T11:06:41.346Z,9.33
2019-02-15T11:09:15.057Z,11.30
2019-02-15T11:11:48.760Z,10.00
2019-02-15T11:14:22.410Z,10.30
2019-02-15T11:16:56.227Z,10.07
2019-02-15T11:19:29.996Z,10.33
2019-02-15T11:22:03.815Z,11.03
2019-02-15T11:24:38.330Z,11.90
2019-02-15T11:27:12.015Z,13.53
2019-02-15T11:29:46.558Z,11.73
2019-02-15T11:32:20.269Z,12.20
2019-02-15T11:34:53.975Z,11.50
2019-02-15T11:37:27.705Z,11.20
2019-02-15T11:40:01.468Z,10.93
2019-02-15T11:42:35.179Z,12.37
2019-02-15T11:45:10.614Z,12.23
2019-02-15T11:47:44.467Z,10.40
2019-02-15T11:50:18.168Z,10.00
2019-02-15T11:52:51.946Z,10.27
2019-02-15T11:55:25.757Z,11.67
2019-02-15T11:58:00.083Z,9.90
2019-02-15T12:00:33.902Z,10.37
2019-02-15T12:03:07.407Z,9.67
2019-02-15T12:05:40.956Z,10.63
2019-02-15T12:08:14.654Z,9.57
2019-02-15T12:10:48.198Z,10.23
2019-02-15T12:13:21.868Z,9.55
2019-02-15T12:15:55.576Z,8.60
2019-02-15T12:18:29.217Z,8.65
2019-02-15T12:21:02.948Z,11.27
2019-02-15T12:23:36.709Z,7.40
2019-02-15T12:26:10.343Z,5.45
2019-02-15T12:28:43.977Z,3.00
2019-02-15T12:31:17.570Z,2.60
2019-02-15T12:33:51.201Z,2.50
2019-02-15T12:36:24.969Z,2.72
2019-02-15T12:39:02.891Z,2.30
2019-02-15T12:41:36.412Z,3.55
2019-02-15T12:44:09.957Z,2.58
2019-02-15T12:46:44.297Z,2.95
2019-02-15T12:49:18.729Z,2.65
2019-02-15T12:51:55.042Z,2.58
2019-02-15T12:54:28.624Z,2.10
2019-02-15T12:57:02.190Z,3.10
2019-02-15T12:59:35.891Z,2.70
2019-02-15T13:02:10.230Z,3.05
2019-02-15T13:04:44.695Z,4.30
2019-02-15T13:07:18.475Z,4.00
2019-02-15T13:09:52.076Z,2.70
2019-02-15T13:12:25.740Z,3.15
2019-02-15T13:14:59.351Z,3.97
2019-02-15T13:17:33.855Z,3.33
2019-02-15T13:20:07.525Z,3.67
2019-02-15T13:22:41.205Z,3.20
2019-02-15T13:25:15.555Z,3.55
2019-02-15T13:27:49.082Z,3.15
2019-02-15T13:30:23.123Z,3.35
2019-02-15T13:32:57.518Z,3.00
2019-02-15T13:35:31.282Z,3.95
2019-02-15T13:38:05.806Z,3.83
2019-02-15T13:40:40.360Z,3.80
2019-02-15T13:43:14.067Z,3.30
2019-02-15T13:45:47.692Z,2.75
2019-02-15T13:48:21.455Z,3.05
2019-02-15T13:50:55.197Z,3.30
2019-02-15T13:53:28.924Z,3.10
2019-02-15T13:56:02.578Z,2.45
2019-02-15T13:58:36.209Z,3.10
2019-02-15T14:01:10.762Z,2.72
2019-02-15T14:03:44.496Z,2.90
2019-02-15T14:06:18.119Z,3.15
2019-02-15T14:08:51.934Z,2.97
2019-02-15T14:11:25.518Z,2.65
2019-02-15T14:13:59.139Z,2.47
2019-02-15T14:16:32.757Z,2.90
2019-02-15T14:19:06.317Z,3.15
2019-02-15T14:21:44.444Z,2.67
2019-02-15T14:24:13.785Z,4.05
2019-02-15T14:26:47.571Z,2.15
2019-02-15T14:29:21.376Z,2.30
2019-02-15T14:31:55.689Z,2.58
2019-02-15T14:34:30.266Z,2.70
2019-02-15T14:37:04.644Z,1.70
2019-02-15T14:39:38.404Z,1.50
2019-02-15T14:42:12.760Z,2.65
2019-02-15T14:44:47.131Z,1.65
2019-02-15T14:47:21.341Z,1.37
2019-02-15T14:49:55.056Z,1.45
2019-02-15T14:52:29.399Z,2.12
2019-02-15T14:55:03.917Z,1.45
2019-02-15T14:57:37.955Z,2.28
2019-02-15T15:00:11.685Z,1.58
2019-02-15T15:02:45.461Z,1.55
2019-02-15T15:05:19.923Z,1.30
2019-02-15T15:07:53.559Z,1.50
2019-02-15T15:10:27.381Z,1.12
2019-02-15T15:13:01.063Z,1.33
2019-02-15T15:15:34.666Z,1.42
2019-02-15T15:18:13.091Z,1.25
2019-02-15T15:20:41.819Z,1.20
2019-02-15T15:23:15.395Z,3.10
2019-02-15T15:25:48.959Z,1.20
2019-02-15T15:28:22.534Z,2.17
2019-02-15T15:30:56.106Z,2.62
2019-02-15T15:33:29.687Z,1.80
2019-02-15T15:36:03.401Z,1.30
2019-02-15T15:38:36.997Z,3.28
2019-02-15T15:41:10.803Z,1.77
2019-02-15T15:43:44.627Z,2.37
2019-02-15T15:46:19.200Z,1.95
2019-02-15T15:48:53.752Z,1.40
2019-02-15T15:51:27.484Z,1.90
2019-02-15T15:54:01.156Z,1.48
2019-02-15T15:56:34.962Z,1.60
2019-02-15T15:59:08.591Z,1.80
2019-02-15T16:01:43.157Z,2.33
2019-02-15T16:04:16.804Z,1.70
2019-02-15T16:06:51.170Z,2.10
2019-02-15T16:09:24.885Z,2.08
2019-02-15T16:11:58.562Z,1.52
2019-02-15T16:14:32.095Z,2.00
2019-02-15T16:17:05.939Z,2.15
2019-02-15T16:19:48.750Z,3.45
2019-02-15T16:22:14.036Z,1.77
2019-02-15T16:24:48.603Z,2.37
2019-02-15T16:27:22.421Z,3.58
2019-02-15T16:29:56.055Z,3.95
2019-02-15T16:32:29.666Z,4.32
2019-02-15T16:35:03.344Z,4.30
2019-02-15T16:37:37.997Z,3.55
2019-02-15T16:40:13.490Z,3.78
2019-02-15T16:42:47.971Z,3.72
2019-02-15T16:45:23.440Z,3.40
2019-02-15T16:47:55.208Z,3.03
2019-02-15T16:50:29.216Z,2.90
2019-02-15T16:53:03.399Z,2.90
2019-02-15T16:55:36.997Z,4.00
2019-02-15T16:58:10.591Z,3.05
2019-02-15T17:00:44.230Z,4.25
2019-02-15T17:03:17.971Z,2.60
2019-02-15T17:05:52.451Z,3.00
2019-02-15T17:08:26.168Z,3.53
2019-02-15T17:11:00.198Z,2.85
2019-02-15T17:13:34.775Z,4.03
2019-02-15T17:16:09.107Z,3.50
2019-02-15T17:18:51.458Z,3.33
2019-02-15T17:21:16.977Z,3.65
2019-02-15T17:23:50.572Z,4.57
2019-02-15T17:26:24.195Z,4.10
2019-02-15T17:28:58.063Z,4.60
2019-02-15T17:31:31.609Z,4.05
2019-02-15T17:34:05.214Z,4.20
2019-02-15T17:36:38.775Z,4.10
2019-02-15T17:39:12.390Z,5.05
2019-02-15T17:41:46.215Z,4.47
2019-02-15T17:44:19.801Z,4.28
2019-02-15T17:46:54.260Z,4.68
2019-02-15T17:49:28.047Z,4.68
2019-02-15T17:52:01.701Z,4.30
2019-02-15T17:54:35.274Z,7.12
2019-02-15T17:57:08.916Z,4.87
2019-02-15T17:59:42.505Z,4.15
2019-02-15T18:02:17.060Z,6.12
2019-02-15T18:04:52.164Z,5.65
2019-02-15T18:07:25.898Z,4.60
2019-02-15T18:09:59.594Z,5.25
2019-02-15T18:12:33.364Z,6.70
2019-02-15T18:15:07.189Z,5.68
2019-02-15T18:17:42.563Z,5.47
2019-02-15T18:20:16.159Z,5.45
2019-02-15T18:22:49.680Z,5.03
2019-02-15T18:25:23.529Z,6.22
2019-02-15T18:27:57.997Z,5.60
2019-02-15T18:30:31.839Z,6.20
2019-02-15T18:33:05.510Z,6.78
2019-02-15T18:35:39.251Z,8.50
2019-02-15T18:38:13.078Z,6.65
2019-02-15T18:40:46.776Z,9.07
2019-02-15T18:43:20.479Z,7.25
2019-02-15T18:45:54.040Z,7.65
2019-02-15T18:48:27.691Z,6.72
2019-02-15T18:51:01.322Z,9.88
2019-02-15T18:53:35.682Z,7.55
2019-02-15T18:56:09.431Z,6.62
2019-02-15T18:58:43.885Z,7.55
2019-02-15T19:01:17.564Z,6.07
2019-02-15T19:03:51.163Z,4.72
2019-02-15T19:06:24.766Z,5.75
2019-02-15T19:08:59.371Z,6.10
2019-02-15T19:11:32.965Z,7.10
2019-02-15T19:14:06.598Z,6.72
2019-02-15T19:16:40.441Z,6.22
2019-02-15T19:19:14.300Z,6.10
2019-02-15T19:21:48.208Z,8.52
2019-02-15T19:24:21.631Z,7.43
2019-02-15T19:26:56.285Z,8.55
2019-02-15T19:29:29.988Z,8.55
2019-02-15T19:32:03.610Z,7.20
2019-02-15T19:34:37.432Z,6.50
2019-02-15T19:37:11.184Z,7.90
2019-02-15T19:39:44.727Z,6.68
2019-02-15T19:42:18.494Z,7.70
2019-02-15T19:44:52.082Z,6.40
2019-02-15T19:47:25.794Z,6.80
2019-02-15T19:50:00.429Z,8.20
2019-02-15T19:52:33.827Z,9.80
2019-02-15T19:55:07.420Z,8.00
2019-02-15T19:57:41.114Z,8.50
2019-02-15T20:00:14.985Z,7.30
2019-02-15T20:02:48.685Z,7.53
2019-02-15T20:05:22.333Z,8.68
2019-02-15T20:07:56.024Z,8.75
2019-02-15T20:10:29.860Z,6.62
2019-02-15T20:13:03.600Z,6.75
2019-02-15T20:15:37.213Z,6.40
2019-02-15T20:18:10.734Z,8.18
2019-02-15T20:20:45.267Z,7.47
2019-02-15T20:23:18.814Z,7.80
2019-02-15T20:25:52.397Z,7.15
2019-02-15T20:28:25.891Z,6.80
2019-02-15T20:30:59.473Z,8.10
2019-02-15T20:33:33.052Z,6.40
2019-02-15T20:36:06.586Z,10.35
2019-02-15T20:38:40.312Z,8.55
2019-02-15T20:41:13.970Z,7.97
2019-02-15T20:43:47.585Z,7.50
2019-02-15T20:46:21.237Z,7.53
2019-02-15T20:49:04.116Z,8.20
2019-02-15T20:51:28.456Z,6.85
2019-02-15T20:54:02.088Z,8.23
2019-02-15T20:56:35.643Z,9.70
2019-02-15T20:59:09.212Z,8.50
2019-02-15T21:01:43.708Z,7.95
2019-02-15T21:04:17.322Z,6.97
2019-02-15T21:06:51.066Z,5.90
2019-02-15T21:09:24.807Z,6.80
2019-02-15T21:11:58.570Z,8.35
2019-02-15T21:14:32.311Z,8.10
2019-02-15T21:17:05.838Z,7.53
2019-02-15T21:19:39.399Z,6.18
2019-02-15T21:22:12.961Z,7.22
2019-02-15T21:24:46.686Z,7.32
2019-02-15T21:27:20.386Z,6.10
2019-02-15T21:29:54.039Z,7.47
2019-02-15T21:32:27.617Z,6.45
2019-02-15T21:35:01.186Z,6.90
2019-02-15T21:37:34.870Z,6.93
2019-02-15T21:40:09.225Z,8.63
2019-02-15T21:42:42.730Z,7.12
2019-02-15T21:45:16.387Z,7.80
2019-02-15T21:47:49.951Z,6.93
2019-02-15T21:50:23.741Z,6.57
2019-02-15T21:52:57.371Z,6.68
2019-02-15T21:55:30.938Z,9.43
2019-02-15T21:58:05.305Z,6.53
2019-02-15T22:00:38.930Z,7.05
2019-02-15T22:03:12.731Z,8.00
2019-02-15T22:05:47.116Z,6.37
2019-02-15T22:08:21.616Z,6.75
2019-02-15T22:10:55.316Z,6.22
2019-02-15T22:13:29.168Z,6.53
2019-02-15T22:16:02.735Z,7.10
2019-02-15T22:18:36.454Z,5.75
2019-02-15T22:21:10.864Z,7.05
2019-02-15T22:23:44.469Z,6.87
2019-02-15T22:26:18.065Z,7.72
2019-02-15T22:28:51.669Z,6.93
2019-02-15T22:31:25.989Z,6.65
2019-02-15T22:33:59.646Z,7.12
2019-02-15T22:36:33.320Z,6.53
2019-02-15T22:39:06.926Z,5.87
2019-02-15T22:41:40.451Z,6.28
2019-02-15T22:44:14.829Z,6.72
2019-02-15T22:46:48.531Z,8.90
2019-02-15T22:49:22.119Z,6.90
2019-02-15T22:51:55.719Z,7.30
2019-02-15T22:54:30.077Z,7.65
2019-02-15T22:57:04.010Z,7.43
2019-02-15T22:59:37.555Z,7.62
2019-02-15T23:02:11.134Z,7.30
2019-02-15T23:04:44.744Z,6.97
2019-02-15T23:07:19.314Z,6.32
2019-02-15T23:09:53.025Z,6.00
2019-02-15T23:12:26.707Z,7.28
2019-02-15T23:15:00.398Z,7.50
2019-02-15T23:17:33.976Z,7.00
2019-02-15T23:20:07.569Z,6.30
2019-02-15T23:22:41.290Z,6.80
2019-02-15T23:25:15.036Z,33.80
2019-02-15T23:27:49.528Z,7.87
2019-02-15T23:30:23.224Z,7.18
2019-02-15T23:32:57.020Z,7.53
2019-02-15T23:35:30.530Z,7.03
2019-02-15T23:38:04.121Z,6.18
2019-02-15T23:40:37.729Z,7.10
2019-02-15T23:43:11.392Z,6.68
2019-02-15T23:45:45.183Z,6.60
2019-02-15T23:48:18.546Z,5.95
2019-02-15T23:50:54.990Z,6.40
2019-02-15T23:53:25.721Z,6.25
2019-02-15T23:55:59.398Z,6.70
2019-02-15T23:58:33.116Z,7.07
